Airfield :
LOGIN :

Register | Disclaimer

   EN    FR    IT 

 










Legend :    VFR   Marginal VFR   IFR   Intensive IFR   Very Intensive IFR
Visi :
Ceiling :
>= 8 km
>= 3000ft
5 to 8 km
1000 to 3000 ft
1500m to 5 km
500 to 1000 ft
800 to 1500m
200 to 500 ft
< 800m
< 200 ft
Symbols :   Thunderstorms  Fog  Heavy snow  Heavy precipitations  Wind > 20 kt
SIGMETs :     Misc.  Thunderstorms  Icing  Turbulence  Mountain Waves  Volcanic Ashes







- Airport Elevation : 2096 ft
- IATA code : AUR
- Download approach charts


LFLW - Aurillac

CURRENT METAR :
  • 102330Z AUTO 33005KT 9000 NSC 01/M00 Q1026

EXPIRED METARs :
  • 102300Z AUTO 31005KT CAVOK 01/00 Q1027
  • 102230Z AUTO 31003KT CAVOK 01/01 Q1027
  • 102200Z AUTO 29003KT 8000 NSC 01/M00 Q1027
  • 102130Z AUTO 31003KT CAVOK 01/00 Q1027
  • 102100Z AUTO 33003KT CAVOK 03/01 Q1027

TAF TAF LFLW
Valid from the 10 at 15:00 until the 11 at 00:00 UTC


101400Z 1015/1024 33011KT 9999 SCT025 BKN040
PROB30
TEMPO 1015/1018 SHRA
No reported NOTAMs for that airfield.



MET'MAP, your aeronautical weather chart ! - Copyright ORBIFLY December 2007 - Disclaimer

ORBIFLY MET'MAP TEAM :

Programming & Development : Alexandra Zaïnal
Concept & Development : Baudouin d'Aumeries
Co-Development & Prog : Marc-Olivier Méhu
Technical & hardware support : Manuel Goepfert

Contact : metmap@orbifly.com




SOURCES & CREDITS :

   NOAA